Time,TemperatureF,DewpointF,PressureIn,WindDirection,WindDirectionDegrees,WindSpeedMPH,WindSpeedGustMPH,Humidity,HourlyPrecipIn,Conditions,Clouds,dailyrainin,SoftwareType,DateUTC
2014-09-30 00:00:00,54.1,53.9,30.37,East,90,0.7,1.6,99,0.00,,,0.00,pywws,2014-09-29 22:00:00,
2014-09-30 00:05:00,54.1,53.9,30.37,NE,45,0.0,1.6,99,0.00,,,0.00,pywws,2014-09-29 22:05:00,
2014-09-30 00:15:00,53.6,53.3,30.38,East,90,0.0,1.6,99,0.00,,,0.00,pywws,2014-09-29 22:15:00,
2014-09-30 00:23:00,53.6,53.3,30.38,East,90,0.0,1.6,99,0.00,,,0.00,pywws,2014-09-29 22:23:00,
2014-09-30 00:25:00,53.6,53.3,30.38,East,90,0.0,1.6,99,0.00,,,0.00,pywws,2014-09-29 22:25:00,
2014-09-30 00:28:00,53.4,53.1,30.38,East,90,0.0,2.2,99,0.00,,,0.00,pywws,2014-09-29 22:28:00,
2014-09-30 00:38:00,53.4,53.1,30.38,East,90,1.6,2.2,99,0.00,,,0.00,pywws,2014-09-29 22:38:00,
2014-09-30 00:45:00,53.2,53.0,30.38,East,90,1.6,3.8,99,0.00,,,0.00,pywws,2014-09-29 22:45:00,
2014-09-30 00:55:00,53.1,52.8,30.38,East,90,0.7,2.2,99,0.00,,,0.00,pywws,2014-09-29 22:55:00,
2014-09-30 01:00:00,52.9,52.6,30.38,East,90,0.0,0.7,99,0.00,,,0.00,pywws,2014-09-29 23:00:00,
2014-09-30 01:05:00,52.9,52.6,30.38,East,90,0.0,1.6,99,0.00,,,0.00,pywws,2014-09-29 23:05:00,
2014-09-30 01:15:00,52.5,52.2,30.38,East,90,0.0,0.7,99,0.00,,,0.00,pywws,2014-09-29 23:15:00,
2014-09-30 01:25:00,52.3,52.1,30.38,East,90,0.0,0.7,99,0.00,,,0.00,pywws,2014-09-29 23:25:00,
2014-09-30 01:30:00,52.2,51.9,30.38,East,90,0.7,2.2,99,0.00,,,0.00,pywws,2014-09-29 23:30:00,
2014-09-30 01:40:00,51.8,51.5,30.38,East,90,0.0,0.7,99,0.00,,,0.00,pywws,2014-09-29 23:40:00,
2014-09-30 01:45:00,51.8,51.5,30.37,East,90,0.7,1.6,99,0.00,,,0.00,pywws,2014-09-29 23:45:00,
2014-09-30 01:55:00,51.8,51.5,30.37,East,90,0.0,0.7,99,0.00,,,0.00,pywws,2014-09-29 23:55:00,
2014-09-30 02:05:00,51.6,51.3,30.38,East,90,0.7,1.6,99,0.00,,,0.00,pywws,2014-09-30 00:05:00,
2014-09-30 02:15:00,51.4,51.2,30.37,East,90,0.0,1.6,99,0.00,,,0.00,pywws,2014-09-30 00:15:00,
2014-09-30 02:25:00,51.1,50.8,30.37,East,90,0.0,0.7,99,0.00,,,0.00,pywws,2014-09-30 00:25:00,
2014-09-30 02:35:00,51.1,50.8,30.37,East,90,0.0,0.7,99,0.00,,,0.00,pywws,2014-09-30 00:35:00,
2014-09-30 02:45:00,50.7,50.4,30.37,SE,135,0.0,0.7,99,0.00,,,0.00,pywws,2014-09-30 00:45:00,
2014-09-30 02:55:00,50.5,50.3,30.38,NW,315,0.0,0.7,99,0.00,,,0.00,pywws,2014-09-30 00:55:00,
2014-09-30 03:05:00,50.2,49.9,30.37,North,0,0.0,0.7,99,0.00,,,0.00,pywws,2014-09-30 01:05:00,
2014-09-30 03:15:00,50.2,49.9,30.37,NE,45,0.0,1.6,99,0.00,,,0.00,pywws,2014-09-30 01:15:00,
2014-09-30 03:25:00,50.0,49.7,30.37,East,90,0.0,0.7,99,0.00,,,0.00,pywws,2014-09-30 01:25:00,
2014-09-30 03:35:00,50.0,49.7,30.37,SE,135,0.7,1.6,99,0.00,,,0.00,pywws,2014-09-30 01:35:00,
2014-09-30 03:40:00,49.8,49.5,30.37,East,90,0.7,2.2,99,0.00,,,0.00,pywws,2014-09-30 01:40:00,
2014-09-30 03:45:00,49.8,49.5,30.37,East,90,0.7,3.1,99,0.00,,,0.00,pywws,2014-09-30 01:45:00,
2014-09-30 03:55:00,49.6,49.4,30.38,SE,135,0.0,0.0,99,0.00,,,0.00,pywws,2014-09-30 01:55:00,
2014-09-30 04:05:00,49.6,49.4,30.38,East,90,0.0,0.7,99,0.00,,,0.00,pywws,2014-09-30 02:05:00,
2014-09-30 04:15:00,49.5,49.2,30.38,South,180,0.0,0.7,99,0.00,,,0.00,pywws,2014-09-30 02:15:00,
2014-09-30 04:25:00,49.6,49.4,30.38,East,90,0.0,0.7,99,0.00,,,0.00,pywws,2014-09-30 02:25:00,
2014-09-30 04:35:00,49.5,49.2,30.37,East,90,0.0,1.6,99,0.00,,,0.00,pywws,2014-09-30 02:35:00,
2014-09-30 04:45:00,49.3,49.0,30.37,East,90,0.0,0.7,99,0.00,,,0.00,pywws,2014-09-30 02:45:00,
2014-09-30 04:55:00,49.1,48.8,30.38,East,90,0.0,1.6,99,0.00,,,0.00,pywws,2014-09-30 02:55:00,
2014-09-30 05:00:00,49.1,48.8,30.37,East,90,0.0,1.6,99,0.00,,,0.00,pywws,2014-09-30 03:00:00,
2014-09-30 05:05:00,49.1,48.8,30.37,East,90,0.0,0.7,99,0.00,,,0.00,pywws,2014-09-30 03:05:00,
2014-09-30 05:15:00,49.1,48.8,30.37,East,90,0.0,2.2,99,0.00,,,0.00,pywws,2014-09-30 03:15:00,
2014-09-30 05:25:00,48.9,48.7,30.37,East,90,1.6,3.1,99,0.00,,,0.00,pywws,2014-09-30 03:25:00,
2014-09-30 05:35:00,48.9,48.7,30.37,NW,315,0.0,0.7,99,0.00,,,0.00,pywws,2014-09-30 03:35:00,
2014-09-30 05:45:00,49.1,48.8,30.38,North,0,0.0,0.7,99,0.00,,,0.00,pywws,2014-09-30 03:45:00,
2014-09-30 05:55:00,49.3,49.0,30.37,NE,45,0.0,0.0,99,0.00,,,0.00,pywws,2014-09-30 03:55:00,
2014-09-30 06:05:00,49.5,49.2,30.38,NW,315,0.0,1.6,99,0.00,,,0.00,pywws,2014-09-30 04:05:00,
2014-09-30 06:15:00,49.6,49.4,30.37,NE,45,0.0,0.7,99,0.00,,,0.00,pywws,2014-09-30 04:15:00,
2014-09-30 06:25:00,49.6,49.4,30.38,West,270,0.0,0.7,99,0.00,,,0.00,pywws,2014-09-30 04:25:00,
2014-09-30 06:35:00,49.8,49.5,30.38,SE,135,0.0,0.7,99,0.00,,,0.00,pywws,2014-09-30 04:35:00,
2014-09-30 06:45:00,50.0,49.7,30.38,East,90,0.0,0.7,99,0.00,,,0.00,pywws,2014-09-30 04:45:00,
2014-09-30 06:55:00,50.2,49.9,30.37,SE,135,0.0,0.7,99,0.00,,,0.00,pywws,2014-09-30 04:55:00,
2014-09-30 07:05:00,50.2,49.9,30.38,East,90,0.0,0.7,99,0.00,,,0.00,pywws,2014-09-30 05:05:00,
2014-09-30 07:15:00,50.4,50.1,30.38,SE,135,0.0,0.7,99,0.00,,,0.00,pywws,2014-09-30 05:15:00,
2014-09-30 07:25:00,50.4,50.1,30.38,East,90,0.0,0.0,99,0.00,,,0.00,pywws,2014-09-30 05:25:00,
2014-09-30 07:35:00,50.7,50.4,30.39,SW,225,0.0,0.0,99,0.00,,,0.00,pywws,2014-09-30 05:35:00,
2014-09-30 07:45:00,51.1,50.8,30.38,East,90,0.0,0.0,99,0.00,,,0.00,pywws,2014-09-30 05:45:00,
2014-09-30 07:55:00,51.3,51.0,30.38,SE,135,0.0,0.0,99,0.00,,,0.00,pywws,2014-09-30 05:55:00,
2014-09-30 08:05:00,51.4,51.2,30.38,SE,135,0.0,0.0,99,0.00,,,0.00,pywws,2014-09-30 06:05:00,
2014-09-30 08:15:00,52.2,51.9,30.38,East,90,0.0,0.7,99,0.00,,,0.00,pywws,2014-09-30 06:15:00,
2014-09-30 08:25:00,52.5,52.2,30.38,East,90,0.0,0.7,99,0.00,,,0.00,pywws,2014-09-30 06:25:00,
2014-09-30 08:35:00,53.1,52.8,30.38,East,90,0.0,0.7,99,0.00,,,0.00,pywws,2014-09-30 06:35:00,
2014-09-30 08:45:00,53.6,53.3,30.38,East,90,0.0,0.7,99,0.00,,,0.00,pywws,2014-09-30 06:45:00,
2014-09-30 08:55:00,54.1,53.9,30.38,East,90,0.0,1.6,99,0.00,,,0.00,pywws,2014-09-30 06:55:00,
2014-09-30 09:05:00,54.3,54.0,30.38,NW,315,0.0,0.7,99,0.00,,,0.00,pywws,2014-09-30 07:05:00,
2014-09-30 09:15:00,55.8,55.5,30.39,North,0,0.0,0.7,99,0.00,,,0.00,pywws,2014-09-30 07:15:00,
2014-09-30 09:25:00,56.3,56.0,30.39,North,0,0.0,1.6,99,0.00,,,0.00,pywws,2014-09-30 07:25:00,
2014-09-30 09:30:00,56.3,56.0,30.39,North,0,0.7,1.6,99,0.00,,,0.00,pywws,2014-09-30 07:30:00,
2014-09-30 09:40:00,57.0,56.7,30.39,East,90,0.0,2.2,99,0.00,,,0.00,pywws,2014-09-30 07:40:00,
2014-09-30 09:45:00,57.4,57.1,30.39,NE,45,0.0,1.6,99,0.00,,,0.00,pywws,2014-09-30 07:45:00,
2014-09-30 09:55:00,58.3,58.0,30.39,North,0,0.0,1.6,99,0.00,,,0.00,pywws,2014-09-30 07:55:00,
2014-09-30 10:05:00,58.8,58.5,30.40,North,0,0.0,1.6,99,0.00,,,0.00,pywws,2014-09-30 08:05:00,
2014-09-30 10:15:00,59.4,58.5,30.40,West,270,0.7,2.2,97,0.00,,,0.00,pywws,2014-09-30 08:15:00,
2014-09-30 10:25:00,59.5,58.4,30.40,North,0,1.6,3.8,96,0.00,,,0.00,pywws,2014-09-30 08:25:00,
2014-09-30 10:35:00,60.1,58.6,30.40,NNW,338,0.0,0.7,95,0.00,,,0.00,pywws,2014-09-30 08:35:00,
2014-09-30 10:45:00,60.4,58.4,30.40,North,0,2.2,3.8,93,0.00,,,0.00,pywws,2014-09-30 08:45:00,
2014-09-30 10:55:00,60.1,58.0,30.40,NE,45,2.2,4.5,93,0.00,,,0.00,pywws,2014-09-30 08:55:00,
2014-09-30 11:05:00,59.5,57.8,30.39,North,0,3.1,5.4,94,0.00,,,0.00,pywws,2014-09-30 09:05:00,
2014-09-30 11:15:00,59.9,58.2,30.39,North,0,2.2,4.5,94,0.00,,,0.00,pywws,2014-09-30 09:15:00,
2014-09-30 11:25:00,61.0,58.6,30.39,NE,45,0.0,0.7,92,0.00,,,0.00,pywws,2014-09-30 09:25:00,
2014-09-30 11:35:00,62.2,59.0,30.39,East,90,0.0,0.7,89,0.00,,,0.00,pywws,2014-09-30 09:35:00,
2014-09-30 11:45:00,62.6,59.0,30.39,NE,45,0.7,3.1,88,0.00,,,0.00,pywws,2014-09-30 09:45:00,
2014-09-30 11:55:00,64.0,59.8,30.39,NE,45,0.0,1.6,86,0.00,,,0.00,pywws,2014-09-30 09:55:00,
2014-09-30 12:05:00,66.2,61.6,30.39,NE,45,0.0,0.0,85,0.00,,,0.00,pywws,2014-09-30 10:05:00,
2014-09-30 12:15:00,69.1,62.6,30.39,North,0,0.0,0.0,80,0.00,,,0.00,pywws,2014-09-30 10:15:00,
2014-09-30 12:25:00,70.5,62.2,30.38,West,270,0.0,0.7,75,0.00,,,0.00,pywws,2014-09-30 10:25:00,
2014-09-30 12:35:00,68.9,61.0,30.38,North,0,0.7,2.2,76,0.00,,,0.00,pywws,2014-09-30 10:35:00,
2014-09-30 12:45:00,67.5,61.4,30.39,NW,315,1.6,3.8,81,0.00,,,0.00,pywws,2014-09-30 10:45:00,
2014-09-30 12:55:00,66.6,60.9,30.39,NW,315,3.8,5.4,82,0.00,,,0.00,pywws,2014-09-30 10:55:00,
2014-09-30 13:05:00,66.2,60.9,30.39,West,270,0.7,2.2,83,0.00,,,0.00,pywws,2014-09-30 11:05:00,
2014-09-30 13:15:00,67.3,61.6,30.39,NW,315,1.6,3.1,82,0.00,,,0.00,pywws,2014-09-30 11:15:00,
2014-09-30 13:20:00,67.3,61.6,30.38,NW,315,0.7,2.2,82,0.00,,,0.00,pywws,2014-09-30 11:20:00,
2014-09-30 13:25:00,67.5,61.4,30.38,WNW,292,1.6,3.8,81,0.00,,,0.00,pywws,2014-09-30 11:25:00,
2014-09-30 13:35:00,68.5,62.1,30.38,West,270,0.0,0.7,80,0.00,,,0.00,pywws,2014-09-30 11:35:00,
2014-09-30 13:45:00,69.8,62.6,30.38,West,270,0.0,0.7,78,0.00,,,0.00,pywws,2014-09-30 11:45:00,
2014-09-30 13:55:00,70.0,61.7,30.38,West,270,1.6,3.1,75,0.00,,,0.00,pywws,2014-09-30 11:55:00,
2014-09-30 14:05:00,68.7,61.9,30.38,NW,315,0.0,0.7,79,0.00,,,0.00,pywws,2014-09-30 12:05:00,
2014-09-30 14:15:00,67.5,61.8,30.38,North,0,1.6,2.2,82,0.00,,,0.00,pywws,2014-09-30 12:15:00,
2014-09-30 14:25:00,66.7,61.4,30.38,North,0,0.0,1.6,83,0.00,,,0.00,pywws,2014-09-30 12:25:00,
2014-09-30 14:35:00,66.6,61.6,30.38,NW,315,0.0,1.6,84,0.00,,,0.00,pywws,2014-09-30 12:35:00,
2014-09-30 14:45:00,67.3,61.9,30.38,North,0,0.7,2.2,83,0.00,,,0.00,pywws,2014-09-30 12:45:00,
2014-09-30 14:55:00,68.4,62.3,30.37,NE,45,0.0,0.7,81,0.00,,,0.00,pywws,2014-09-30 12:55:00,
2014-09-30 15:05:00,69.1,62.3,30.37,NE,45,0.0,0.7,79,0.00,,,0.00,pywws,2014-09-30 13:05:00,
2014-09-30 15:15:00,68.9,62.1,30.37,North,0,0.0,1.6,79,0.00,,,0.00,pywws,2014-09-30 13:15:00,
2014-09-30 15:25:00,68.5,62.5,30.37,East,90,0.7,2.2,81,0.00,,,0.00,pywws,2014-09-30 13:25:00,
2014-09-30 15:35:00,67.8,62.1,30.38,NW,315,1.6,3.1,82,0.00,,,0.00,pywws,2014-09-30 13:35:00,
2014-09-30 15:45:00,66.9,61.9,30.38,West,270,1.6,2.2,84,0.00,,,0.00,pywws,2014-09-30 13:45:00,
2014-09-30 15:55:00,66.6,61.9,30.38,NW,315,0.7,2.2,85,0.00,,,0.00,pywws,2014-09-30 13:55:00,
2014-09-30 16:05:00,66.6,61.9,30.37,NW,315,0.7,2.2,85,0.00,,,0.00,pywws,2014-09-30 14:05:00,
2014-09-30 16:15:00,65.8,61.5,30.37,NE,45,1.6,2.2,86,0.00,,,0.00,pywws,2014-09-30 14:15:00,
2014-09-30 16:25:00,65.8,61.5,30.37,North,0,0.7,3.8,86,0.00,,,0.00,pywws,2014-09-30 14:25:00,
2014-09-30 16:35:00,65.3,61.3,30.37,North,0,0.7,1.6,87,0.00,,,0.00,pywws,2014-09-30 14:35:00,
2014-09-30 16:45:00,65.5,61.5,30.37,SW,225,0.7,2.2,87,0.00,,,0.00,pywws,2014-09-30 14:45:00,
2014-09-30 16:55:00,65.8,61.9,30.37,North,0,0.7,2.2,87,0.00,,,0.00,pywws,2014-09-30 14:55:00,
2014-09-30 17:05:00,65.1,61.1,30.37,West,270,0.0,1.6,87,0.00,,,0.00,pywws,2014-09-30 15:05:00,
2014-09-30 17:15:00,64.9,61.3,30.37,NW,315,0.0,1.6,88,0.00,,,0.00,pywws,2014-09-30 15:15:00,
2014-09-30 17:25:00,64.6,61.3,30.37,SW,225,0.0,0.7,89,0.00,,,0.00,pywws,2014-09-30 15:25:00,
2014-09-30 17:35:00,64.4,61.4,30.37,NNW,338,0.0,1.6,90,0.00,,,0.00,pywws,2014-09-30 15:35:00,
2014-09-30 17:40:00,64.2,61.2,30.37,NW,315,0.0,1.6,90,0.00,,,0.00,pywws,2014-09-30 15:40:00,
2014-09-30 17:45:00,64.0,61.0,30.37,North,0,0.0,0.7,90,0.00,,,0.00,pywws,2014-09-30 15:45:00,
2014-09-30 17:55:00,63.9,61.2,30.37,NW,315,0.7,2.2,91,0.00,,,0.00,pywws,2014-09-30 15:55:00,
2014-09-30 18:05:00,63.5,61.1,30.37,NW,315,0.7,3.1,92,0.00,,,0.00,pywws,2014-09-30 16:05:00,
2014-09-30 18:15:00,63.1,61.1,30.38,NW,315,0.0,0.7,93,0.00,,,0.00,pywws,2014-09-30 16:15:00,
2014-09-30 18:25:00,62.8,61.0,30.37,NW,315,0.0,0.7,94,0.00,,,0.00,pywws,2014-09-30 16:25:00,
2014-09-30 18:35:00,62.6,60.8,30.38,NW,315,0.0,0.7,94,0.00,,,0.00,pywws,2014-09-30 16:35:00,
2014-09-30 18:45:00,62.6,61.1,30.38,NW,315,0.0,0.7,95,0.00,,,0.00,pywws,2014-09-30 16:45:00,
2014-09-30 18:55:00,62.4,61.3,30.38,South,180,0.0,0.7,96,0.00,,,0.00,pywws,2014-09-30 16:55:00,
2014-09-30 19:05:00,62.2,61.4,30.38,SE,135,0.0,0.7,97,0.00,,,0.00,pywws,2014-09-30 17:05:00,
2014-09-30 19:15:00,61.9,61.3,30.38,SW,225,0.0,0.0,98,0.00,,,0.00,pywws,2014-09-30 17:15:00,